Flight Track Log - Related Links

Times and Time Zones

All times are in EDT time to prevent confusion due to time zone crossing. See the SWA325 flight status page for this flight to view local times or setup timezone preferences in your user account.

Time Position Orientation Groundspeed Altitude Reporting Facility
EDT Latitude Longitude Course Direction KTS MPH feet Rate Location/Type
Thu 12:17:32 PM 34.0000 -117.6000 148° Southeast 215 247 4,000  Level Southern California TRACON
Thu 12:19:06 PM 33.9433 -117.4989 124° Southeast 254 292 6,800 1,923 Climbing Los Angeles Center
Thu 12:20:08 PM 33.9067 -117.4117 117° Southeast 288 331 9,000 1,935 Climbing Los Angeles Center
Thu 12:21:10 PM 33.8719 -117.3239 115° Southeast 290 334 10,800 2,177 Climbing Los Angeles Center
Thu 12:22:12 PM 33.8297 -117.2219 116° Southeast 338 389 13,500 2,032 Climbing Los Angeles Center
Thu 12:23:14 PM 33.7875 -117.1189 116° Southeast 343 395 15,000 2,177 Climbing Los Angeles Center
Thu 12:24:16 PM 33.7356 -116.9894 116° Southeast 355 409 18,000 2,688 Climbing Los Angeles Center
Thu 12:25:19 PM 33.6911 -116.8739 115° Southeast 380 437 20,600 2,352 Climbing Los Angeles Center
Thu 12:26:21 PM 33.6778 -116.7319 96° East 397 457 22,900 1,548 Climbing Los Angeles Center
Thu 12:27:23 PM 33.6661 -116.5964 96° East 409 471 23,800 1,403 Climbing Los Angeles Center
Thu 12:28:25 PM 33.6547 -116.4589 96° East 412 474 25,800 1,742 Climbing Los Angeles Center
Thu 12:29:27 PM 33.6422 -116.3142 96° East 431 496 27,400 1,597 Climbing Los Angeles Center
Thu 12:30:29 PM 33.6281 -116.1633 96° East 450 518 29,100 2,032 Climbing Los Angeles Center
Thu 12:31:31 PM 33.6247 -116.0139 91° East 448 516 31,600 1,887 Climbing Los Angeles Center
Thu 12:32:33 PM 33.6228 -115.8689 91° East 435 501 33,000 677 Climbing Los Angeles Center
Thu 12:33:35 PM 33.6178 -115.6958 92° East 433 498 33,000  Level Los Angeles Center
Thu 12:34:37 PM 33.6144 -115.5506 92° East 436 502 33,000  Level Los Angeles Center
Thu 12:35:40 PM 33.6111 -115.4058 92° East 435 501 33,000  Level Los Angeles Center
Thu 12:36:42 PM 33.6086 -115.2603 91° East 436 502 33,000 -435 Level Los Angeles Center
Thu 12:37:44 PM 33.6050 -115.1178 92° East 430 495 32,100 -823 Descending Los Angeles Center
Thu 12:38:46 PM 33.6008 -114.9700 92° East 439 505 31,300 -532 Descending Los Angeles Center
Thu 12:39:48 PM 33.5950 -114.7886 92° East 453 521 31,000 -145 Descending Los Angeles Center
Thu 12:40:50 PM 33.5714 -114.6400 101° East 453 521 31,000  Level Los Angeles Center
Thu 12:41:52 PM 33.5422 -114.4944 103° East 451 519 31,000 -732 Level Los Angeles Center
Thu 12:42:53 PM 33.5169 -114.3553 102° East 452 520 29,500 -1,854 Descending Albuquerque Center
Thu 12:43:55 PM 33.4897 -114.2125 103° East 446 513 27,200 -2,177 Descending Albuquerque Center
Thu 12:44:57 PM 33.4636 -114.0775 103° East 426 490 25,000 -1,065 Descending Albuquerque Center
Thu 12:45:59 PM 33.4314 -113.9186 104° East 413 475 25,000  Level Albuquerque Center
Thu 12:47:01 PM 33.4042 -113.7892 104° East 405 466 25,000  Level Albuquerque Center
Thu 12:48:03 PM 33.3781 -113.6578 103° East 406 467 25,000 -968 Level Albuquerque Center
Thu 12:49:05 PM 33.3517 -113.5258 103° East 408 470 23,000 -1,500 Descending Albuquerque Center
Thu 12:50:07 PM 33.3253 -113.3975 104° East 401 461 21,900 -1,488 Descending Albuquerque Center
Thu 12:51:10 PM 33.2994 -113.2750 104° East 387 445 19,900 -2,112 Descending Albuquerque Center
Thu 12:52:12 PM 33.2739 -113.1314 102° East 373 429 17,500 -1,452 Descending Albuquerque Center
Thu 12:53:14 PM 33.2753 -113.0142 89° East 357 411 16,900 -387 Descending Albuquerque Center
Thu 12:54:16 PM 33.2789 -112.9014 88° East 344 396 16,700 -484 Descending Albuquerque Center
Thu 12:55:18 PM 33.2808 -112.7942 89° East 329 379 15,900 -435 Descending Albuquerque Center
Thu 12:56:20 PM 33.2828 -112.6928 89° East 314 361 15,800 -823 Descending Albuquerque Center
Thu 12:57:22 PM 33.2864 -112.5806 88° East 303 349 14,200 -1,500 Descending Albuquerque Center
Thu 12:58:24 PM 33.2889 -112.4847 88° East 294 338 12,700 -1,355 Descending Albuquerque Center
Thu 12:59:26 PM 33.2908 -112.3900 89° East 287 330 11,400 -968 Descending Albuquerque Center
Thu 01:00:28 PM 33.2958 -112.2947 86° East 289 333 10,700 -871 Descending Albuquerque Center
Thu 01:01:30 PM 33.3028 -112.2006 85° East 286 329 9,600 -871 Descending Albuquerque Center
Thu 01:02:32 PM 33.3106 -112.0975 85° East 259 298 8,900 -774 Descending Albuquerque Center
Thu 01:03:34 PM 33.3294 -112.0233 73° East 235 270 8,000 -968 Descending Albuquerque Center
Thu 01:04:36 PM 33.3464 -111.9506 74° East 230 265 6,900 -1,016 Descending Albuquerque Center
Thu 01:05:38 PM 33.3456 -111.8731 91° East 236 272 5,900 -919 Descending Albuquerque Center
Thu 01:06:40 PM 33.3789 -111.8192 53° Northeast 240 276 5,000 -968 Descending Albuquerque Center
Thu 01:07:42 PM 33.4372 -111.8367 346° North 237 273 3,900 -1,096 Descending Albuquerque Center
Thu 01:08:35 PM 33.4333 -111.9000 266° West 175 201 2,900 -1,179 Descending Phoenix TRACON
Thu 01:09:34 PM 33.4333 -111.9500 270° West 159 183 1,700 -1,220 Descending Phoenix TRACON

Login

Don't have an account? Register now (free) for customized features, flight alerts, and more!